Portada
METAR-TAF:

METAR-TAF

Aeroports :

Rasht, Iran

latitud: 37-12N, longitud: 049-38E, altitud: -7 m

Observació

L'informe es va fer fa 26 minuts, a les 03:30 UTC
Vent calma
Temperatura 10°C
Humitat 93%
Pressió 1025 hPa
Visibilitat: 2500 m
Núvols disperses a una alçada de 1500 ft
Escasses núvols a una alçada de 2000 ft, Cumulonimbus.
Cel cobert a una alçada de 7000 ft

METAR: OIGG 210330Z 00000KT 2500 SCT015 FEW020CB OVC070 10/09 Q1025

Hora: 07:26 (03:56 UTC)


TAF: manca

Observacions i pronòstics meteorològics de més de 4000 aeroports (METAR i TAF).

Les estacions disponibles són els punts grocs i vermells al mapa.

Posi el ratolí al punt desitjat per veure el nom de l'estació.

Feu clic per veure les observacions i els pronòstics meteorològics.

Per canviar el mapa: feu clic els botons verds amb una creu de color negre per apropar; al botó verd amb un guió per allunyar la imatge; o en les fletxes verdes per a mapes adjacents.


METAR-TAF: